Home > Products > Valid Products > MTR

000
SAUS44 KMAF 291654
MTR6R6
METAR K6R6 291653Z AUTO 13015KT 36/17 A3012 RMK AO1 SLP155 T03560167





000
SAUS44 KMAF 291559
MTRGDP
METAR KGDP 291551Z AUTO 00000KT 8SM BKN100 24/14 A3035 RMK AO2
SLP193 T02390139





000
SAUS44 KMAF 291554
MTR6R6
METAR K6R6 291553Z AUTO 12008KT 33/18 A3013 RMK AO1 SLP158 T03330178





000
SAUS44 KMAF 291459
MTRGDP
METAR KGDP 291451Z AUTO 00000KT 8SM CLR 23/13 A3034 RMK AO2 SLP188
T02330133 51009





000
SAUS44 KMAF 291454
MTR6R6
METAR K6R6 291453Z AUTO 10006KT 30/19 A3013 RMK AO1 SLP161 T03000189
51006





000
SAUS44 KMAF 291359
MTRGDP
METAR KGDP 291351Z AUTO 06004KT 8SM BKN120 22/13 A3033 RMK AO2
SLP186 T02170128





000
SAUS44 KMAF 291354
MTR6R6
METAR K6R6 291353Z AUTO 12008KT 28/19 A3013 RMK AO1 SLP160 T02830189





000
SAUS44 KMAF 291259
MTRGDP
METAR KGDP 291251Z AUTO 04011KT 7SM CLR 19/16 A3033 RMK AO2 SLP187
T01890156





000
SAUS44 KMAF 291254
MTR6R6
METAR K6R6 291253Z AUTO 05003KT 26/18 A3012 RMK AO1 SLP157 T02610178





000
SAUS44 KMAF 291159
MTRGDP
METAR KGDP 291151Z AUTO 05015KT 8SM CLR 19/16 A3031 RMK AO2 SLP179
70008 T01890156 10222 20189 53007





000
SAUS44 KMAF 291154
MTR6R6
METAR K6R6 291153Z AUTO 03005KT 25/17 A3011 RMK AO1 SLP155 T02500167
10306 20250 53005





000
SAUS44 KMAF 291059
MTRGDP
METAR KGDP 291051Z AUTO 06021KT 9SM CLR 20/15 A3029 RMK AO2 SLP167
T02000150





000
SAUS44 KMAF 291054
MTR6R6
METAR K6R6 291053Z AUTO 05005KT 26/16 A3010 RMK AO1 SLP149 T02560161





000
SAUS44 KMAF 290959
MTRGDP
METAR KGDP 290951Z AUTO 03017G29KT 9SM CLR 20/16 A3029 RMK AO2 PK
WND 04029/0950 SLP170 T02000156





000
SAUS44 KMAF 290954
MTR6R6
METAR K6R6 290953Z AUTO 04004KT 27/16 A3010 RMK AO1 SLP149 T02670156





000
SAUS44 KMAF 290859
MTRGDP
METAR KGDP 290851Z AUTO 04021KT 9SM CLR 21/16 A3028 RMK AO2 PK WND
04028/0758 SLP168 T02060161 58010





000
SAUS44 KMAF 290854
MTR6R6
METAR K6R6 290853Z AUTO 13006KT 29/16 A3010 RMK AO1 SLP147 T02890156
56003





000
SAUS44 KMAF 290800
MTRGDP
METAR KGDP 290751Z AUTO 04021KT 9SM CLR 21/16 A3030 RMK AO2 PK WND
05028/0716 SLP174 T02060161





000
SAUS44 KMAF 290754
MTR6R6
METAR K6R6 290753Z AUTO 10007KT 29/16 A3010 RMK AO1 SLP147 T02940156





000
SAUS44 KMAF 290659
MTRGDP
METAR KGDP 290651Z AUTO 05023KT 9SM CLR 21/16 A3030 RMK AO2 PK WND
05030/0617 SLP178 T02110161 403000178





000
SAUS44 KMAF 290654
MTR6R6
METAR K6R6 290653Z AUTO 11008KT 30/15 A3010 RMK AO1 SLP148 T03000150





000
SAUS44 KMAF 290559
MTRGDP
METAR KGDP 290551Z AUTO 05024G27KT 8SM CLR 22/16 A3032 RMK AO2 PK
WND 05028/0551 SLP179 T02220161 10289 20222 50009





000
SAUS44 KMAF 290554
MTR6R6
METAR K6R6 290553Z AUTO 10008KT 31/16 A3011 RMK AO1 SLP150 T03060156
10372 20306 403890267 51010





000
SAUS44 KMAF 290459
MTRGDP
METAR KGDP 290451Z AUTO 06016KT 9SM SCT070 23/12 A3033 RMK AO2
SLP184 T02330117





000
SAUS44 KMAF 290454
MTR6R6
METAR K6R6 290453Z AUTO 10009KT 31/14 A3010 RMK AO1 SLP147 T03110144





000
SAUS44 KMAF 290359
MTRGDP
METAR KGDP 290351Z AUTO 06014KT 10SM CLR 24/11 A3031 RMK AO2 SLP182
T02390111





000
SAUS44 KMAF 290355
MTR6R6
METAR K6R6 290353Z AUTO 11010KT 32/13 A3009 RMK AO1 SLP146 T03220133





000
SAUS44 KMAF 290259
MTRGDP
METAR KGDP 290251Z AUTO 07013KT 10SM CLR 25/11 A3029 RMK AO2 SLP178
T02500106 53000





000
SAUS44 KMAF 290254
MTR6R6
METAR K6R6 290253Z AUTO 11010KT 33/12 A3007 RMK AO1 SLP141 T03280122
53008





000
SAUS44 KMAF 290159
MTRGDP
METAR KGDP 290151Z AUTO 08014KT 9SM CLR 27/09 A3028 RMK AO2 SLP174
T02670094





000
SAUS44 KMAF 290159 COR
MTR6R6
METAR K6R6 290153Z AUTO 12009KT 34/09 A3006 RMK AO1 SLP136 T03440094





000
SAUS44 KMAF 290059
MTRGDP
METAR KGDP 290051Z AUTO 07013KT 9SM CLR 28/09 A3028 RMK AO2 SLP166
T02780094





000
SAUS44 KMAF 290054
MTR6R6
METAR K6R6 290053Z AUTO 11012KT 36/11 A3005 RMK AO1 SLP131 T03610106





000
SAUS44 KMAF 282359
MTRGDP
METAR KGDP 282351Z AUTO 10015G21KT 8SM FEW080 29/11 A3029 RMK AO2
SLP169 T02890106 10300 20267 56016





000
SAUS44 KMAF 282354
MTR6R6
METAR K6R6 282353Z AUTO 09014KT 37/11 A3005 RMK AO1 SLP131 T03720106
10389 20361 56016





000
SAUS44 KMAF 282259
MTRGDP
METAR KGDP 282251Z AUTO 06016KT 8SM CLR 29/11 A3030 RMK AO2 PK WND
08027/2209 SLP171 T02940111





000
SAUS44 KMAF 282254
MTR6R6
METAR K6R6 282253Z AUTO 12012KT 38/11 A3006 RMK AO1 PK WND
11030/2214 SLP134 T03780111





000
SAUS44 KMAF 282206 COR
MTRGDP
METAR KGDP 282151Z AUTO 07018G23KT 8SM CLR 29/12 A3031 RMK AO2 PK
WND 05027/2122 SLP179 T02940122





000
SAUS44 KMAF 282201 COR
MTRGDP
METAR KGDP 282151Z AUTO 07018G23KT 8SM CLR 29/12 A3031 RMK AO2 PK
WND 05027/2122 SLP179 T02940122





000
SAUS44 KMAF 282200 COR
MTRGDP
METAR KGDP 282151Z AUTO 07018G23KT 8SM CLR 29/12 A3031 RMK AO2 PK
WND 05027/2122 SLP179 T02940122





000
SAUS44 KMAF 282159
MTRGDP
METAR KGDP 282151Z AUTO 07018G23KT 8SM CLR 29/12 A3031 RMK AO2 PK
WND 05027/2122 SLP179 T02940122





000
SAUS44 KMAF 282154
MTR6R6
METAR K6R6 282153Z AUTO 11011G20KT 38/12 A3008 RMK AO1 SLP140
T03830122





000
SAUS44 KMAF 282059
MTRGDP
METAR KGDP 282051Z AUTO 05020G26KT 9SM CLR 28/12 A3034 RMK AO2 PK
WND 04028/1952 SLP182 T02830122





000
SAUS44 KMAF 282054
MTR6R6
METAR K6R6 282053Z AUTO 09019G23KT 38/13 A3010 RMK AO1 SLP148
T03830133 56016





000
SAUS44 KMAF 281959
MTRGDP
METAR KGDP 281951Z AUTO 08023KT 9SM CLR 28/12 RMK AO2 PK WND
07035/1906 SLPNO T02780122





000
SAUS44 KMAF 281954
MTR6R6
METAR K6R6 281953Z AUTO 08011G22KT 38/13 A3011 RMK AO1 SLP151
T03830128





000
SAUS44 KMAF 281859
MTRGDP
METAR KGDP 281851Z AUTO 07020KT 9SM CLR 27/12 RMK AO2 PK WND
08032/1827 SLPNO T02670122 $





000
SAUS44 KMAF 281854
MTR6R6
METAR K6R6 281853Z AUTO 09015G20KT 38/16 A3013 RMK AO1 SLP160
T03780156





000
SAUS44 KMAF 281808 COR
MTRGDP
METAR KGDP 281751Z AUTO 06021G30KT 9SM CLR 27/13 RMK AO2 PK WND
07030/1748 SLPNO 60008 T02720128 10278 20178 $





000
SAUS44 KMAF 281807 COR
MTRGDP
METAR KGDP 281751Z AUTO 06021G30KT 9SM CLR 27/13 RMK AO2 PK WND
07030/1748 SLPNO 60008 T02720128 10278 20178 $





000
SAUS44 KMAF 281806 COR
MTRGDP
METAR KGDP 281751Z AUTO 06021G30KT 9SM CLR 27/13 RMK AO2 PK WND
07030/1748 SLPNO 60008 T02720128 10278 20178 $





000
SAUS44 KMAF 281801 COR
MTRGDP
METAR KGDP 281751Z AUTO 06021G30KT 9SM CLR 27/13 RMK AO2 PK WND
07030/1748 SLPNO 60008 T02720128 10278 20178 $





000
SAUS44 KMAF 281800 COR
MTRGDP
METAR KGDP 281751Z AUTO 06021G30KT 9SM CLR 27/13 RMK AO2 PK WND
07030/1748 SLPNO 60008 T02720128 10278 20178 $





000
SAUS44 KMAF 281759
MTRGDP
METAR KGDP 281751Z AUTO 06021G30KT 9SM CLR 27/13 RMK AO2 PK WND
07030/1748 SLPNO 60008 T02720128 10278 20178 $





000
SAUS44 KMAF 281754
MTR6R6
METAR K6R6 281753Z AUTO 12010G17KT 37/16 A3015 RMK AO1 SLP165
T03720161 10372 20267 58003





000
SAUS44 KMAF 281659
MTRGDP
METAR KGDP 281651Z AUTO 07013KT 8SM CLR 25/17 RMK AO2 SLPNO
T02500167 $





000
SAUS44 KMAF 281659 COR
MTR6R6
METAR K6R6 281653Z AUTO 09011KT 35/18 A3016 RMK AO1 SLP167 T03500178





000
SAUS44 KMAF 281559
MTRGDP
METAR KGDP 281551Z AUTO 08008KT 8SM CLR 22/17 RMK AO2 SLPNO
T02220172 $





000
SAUS44 KMAF 281554
MTR6R6
METAR K6R6 281553Z AUTO 11009KT 32/19 A3016 RMK AO1 SLP168 T03220189





000
SAUS44 KMAF 281459
MTRGDP
METAR KGDP 281451Z AUTO 07019KT 8SM BKN110 19/16 RMK AO2 PK WND
05026/1415 RAE30 SLPNO P0003 60008 T01940161 $





000
SAUS44 KMAF 281454
MTR6R6
METAR K6R6 281453Z AUTO 09009KT 31/19 A3016 RMK AO1 SLP169 T03060189
51017





000
SAUS44 KMAF 281359
MTRGDP
METAR KGDP 281351Z AUTO 06017KT 7SM -RA OVC100 19/15 RMK AO2 WSHFT
1331 SLPNO P0002 T01890150 $





000
SAUS44 KMAF 281354
MTR6R6
METAR K6R6 281353Z AUTO 09010KT 29/19 A3015 RMK AO1 SLP165 T02890189





000
SAUS44 KMAF 281259
MTRGDP
METAR KGDP 281251Z AUTO 35006KT 8SM -RA OVC100 21/12 RMK AO2 SLPNO
P0003 T02060122 $





000
SAUS44 KMAF 281254
MTR6R6
METAR K6R6 281253Z AUTO 10004KT 28/19 A3012 RMK AO1 SLP157 T02780189





000
SAUS44 KMAF 281159
MTRGDP
METAR KGDP 281151Z AUTO 03016G20KT 8SM -RA OVC095 19/14 RMK AO2
WSHFT 1121 SLPNO P0002 60014 70014 T01940144 10256 20189 $





000
SAUS44 KMAF 281154
MTR6R6
METAR K6R6 281153Z AUTO 09007KT 27/19 A3010 RMK AO1 SLP150 T02720189
10306 20272 53012





000
SAUS44 KMAF 281149
MTRGDP
SPECI KGDP 281141Z AUTO 09009KT 7SM -RA OVC100 19/14 RMK AO2 WSHFT
1121 P0001 T01940144 $





000
SAUS44 KMAF 281106 COR
MTRGDP
METAR KGDP 281051Z AUTO 31013G20KT 8SM -RA FEW055 BKN090 OVC110
21/16 RMK AO2 RAB00 SLPNO P0002 T02060156 $





000
SAUS44 KMAF 281101 COR
MTRGDP
METAR KGDP 281051Z AUTO 31013G20KT 8SM -RA FEW055 BKN090 OVC110
21/16 RMK AO2 RAB00 SLPNO P0002 T02060156 $





000
SAUS44 KMAF 281100 COR
MTRGDP
METAR KGDP 281051Z AUTO 31013G20KT 8SM -RA FEW055 BKN090 OVC110
21/16 RMK AO2 RAB00 SLPNO P0002 T02060156 $





000
SAUS44 KMAF 281059
MTRGDP
METAR KGDP 281051Z AUTO 31013G20KT 8SM -RA FEW055 BKN090 OVC110
21/16 RMK AO2 RAB00 SLPNO P0002 T02060156 $





000
SAUS44 KMAF 281054
MTR6R6
METAR K6R6 281053Z AUTO 09011KT 28/19 A3008 RMK AO1 SLP143 T02830189





000
SAUS44 KMAF 280959
MTRGDP
METAR KGDP 280951Z AUTO 8SM 19/16 RMK AO2 RAB16RAEMM SLPNO P0010
T01890161 PWINO $





000
SAUS44 KMAF 280959 COR
MTR6R6
METAR K6R6 280953Z AUTO 10010KT 29/18 A3007 RMK AO1 SLP139 T02890178





000
SAUS44 KMAF 280954
MTR6R6
METAR K6R6 280953Z AUTO 10010KT 29/18 A3007 RMK AO1 SLP139 T02890178





000
SAUS44 KMAF 280859
MTRGDP
METAR KGDP 280851Z AUTO 07015KT 9SM OVC065 23/14 RMK AO2 SLPNO
T02330139 $





000
SAUS44 KMAF 280854
MTR6R6
METAR K6R6 280853Z AUTO 11011KT 29/17 A3006 RMK AO1 SLP135 T02940172
50005





000
SAUS44 KMAF 280759
MTRGDP
METAR KGDP 280751Z AUTO 06017KT 9SM CLR 24/14 RMK AO2 SLPNO
T02390139 $





000
SAUS44 KMAF 280754
MTR6R6
METAR K6R6 280753Z AUTO 10012KT 31/16 A3007 RMK AO1 SLP136 T03060161





000
SAUS44 KMAF 280659
MTRGDP
METAR KGDP 280651Z AUTO 05018KT 9SM CLR 24/14 RMK AO2 SLPNO
T02440139 403390228 $





000
SAUS44 KMAF 280654
MTR6R6
METAR K6R6 280653Z AUTO 07008KT 30/16 A3006 RMK AO1 SLP134 T03000156





000
SAUS44 KMAF 280559
MTRGDP
METAR KGDP 280551Z AUTO 04014KT 9SM SCT110 25/14 RMK AO2 SLPNO
T02500139 10328 20250 $





000
SAUS44 KMAF 280554
MTR6R6
METAR K6R6 280553Z AUTO 08008KT 31/14 A3005 RMK AO1 SLP132 T03060144
10367 20306 404000272 51012





000
SAUS44 KMAF 280459
MTRGDP
METAR KGDP 280451Z AUTO 10013G20KT 9SM CLR 26/13 RMK AO2 SLPNO
T02610128 $





000
SAUS44 KMAF 280454
MTR6R6
METAR K6R6 280453Z AUTO 08008KT 32/13 A3004 RMK AO1 SLP130 T03170133





000
SAUS44 KMAF 280359
MTRGDP
METAR KGDP 280351Z AUTO 07014KT 9SM CLR 28/12 RMK AO2 SLPNO
T02780117 $





000
SAUS44 KMAF 280354
MTR6R6
METAR K6R6 280353Z AUTO 08008KT 33/13 A3004 RMK AO1 SLP128 T03280128





000
SAUS44 KMAF 280259
MTRGDP
METAR KGDP 280251Z AUTO 09018G25KT 10SM FEW095 29/12 RMK AO2 PK WND
08026/0211 SLPNO T02890117 $





000
SAUS44 KMAF 280254
MTR6R6
METAR K6R6 280253Z AUTO 09007KT 34/12 A3001 RMK AO1 SLP120 T03390122
53014





000
SAUS44 KMAF 280159
MTRGDP
METAR KGDP 280151Z AUTO 07020KT 9SM BKN100 30/09 RMK AO2 SLPNO
T03000089 $





000
SAUS44 KMAF 280154
MTR6R6
METAR K6R6 280153Z AUTO 11013KT 36/13 A2999 RMK AO1 SLP112 T03560133





000
SAUS44 KMAF 280059
MTRGDP
METAR KGDP 280051Z AUTO 07022KT 9SM FEW100 31/08 RMK AO2 SLPNO
T03110083 $





000
SAUS44 KMAF 280054
MTR6R6
METAR K6R6 280053Z AUTO 12011KT 36/15 A2998 RMK AO1 SLP107 T03610150





000
SAUS44 KMAF 272359
MTRGDP
METAR KGDP 272351Z AUTO 05016KT 9SM CLR 33/08 RMK AO2 SLPNO
T03280078 10339 20306 $





000
SAUS44 KMAF 272354
MTR6R6
METAR K6R6 272353Z AUTO 11015KT 37/15 A2997 RMK AO1 SLP105 T03670150
10400 20344 56010





000
SAUS44 KMAF 272259
MTRGDP
METAR KGDP 272251Z AUTO 05014G23KT 9SM CLR 33/07 RMK AO2 SLPNO
T03280072 $





000
SAUS44 KMAF 272254
MTR6R6
METAR K6R6 272253Z AUTO 12015G23KT 38/16 A2998 RMK AO1 SLP107
T03780161





000
SAUS44 KMAF 272159
MTRGDP
METAR KGDP 272151Z AUTO 05012G18KT 9SM CLR 33/08 RMK AO2 SLPNO
T03330083 $





000
SAUS44 KMAF 272154
MTR6R6
METAR K6R6 272153Z AUTO 11014G21KT 39/16 A2998 RMK AO1 SLP106
T03940161





000
SAUS44 KMAF 272059
MTRGDP
METAR KGDP 272051Z AUTO 9SM CLR 33/08 RMK AO2 SLPNO T03280083 $





000
SAUS44 KMAF 272054
MTR6R6
METAR K6R6 272053Z AUTO 11009G19KT 39/17 A3000 RMK AO1 SLP114
T03890172 56015





000
SAUS44 KMAF 271959
MTRGDP
METAR KGDP 271951Z AUTO 05008G16KT 9SM FEW110 33/07 RMK AO2 SLPNO
T03280072 $





000
SAUS44 KMAF 271959 COR
MTR6R6
METAR K6R6 271953Z AUTO 08009G16KT 38/18 A3001 RMK AO1 SLP117
T03830178





000
SAUS44 KMAF 271954
MTR6R6
METAR K6R6 271953Z AUTO 08009G16KT 38/18 A3001 RMK AO1 SLP117
T03830178





000
SAUS44 KMAF 271859
MTRGDP
METAR KGDP 271851Z AUTO 07011KT 9SM CLR 32/09 RMK AO2 SLPNO
T03220094 $





000
SAUS44 KMAF 271854
MTR6R6
METAR K6R6 271853Z AUTO 11008G16KT 37/18 A3003 RMK AO1 SLP124
T03720178





000
SAUS44 KMAF 271759
MTRGDP
METAR KGDP 271751Z AUTO 05012G19KT 9SM CLR 31/11 RMK AO2 SLPNO
T03060111 10311 20228 $





000
SAUS44 KMAF 271754
MTR6R6
METAR K6R6 271753Z AUTO 11011KT 34/18 A3005 RMK AO1 SLP131 T03440183
10350 20272 58003





000
SAUS44 KMAF 271659
MTRGDP
METAR KGDP 271651Z AUTO 08009KT 9SM CLR 30/11 RMK AO2 SLPNO
T03000106 $





000
SAUS44 KMAF 271654
MTR6R6
METAR K6R6 271653Z AUTO 10009KT 34/18 A3006 RMK AO1 SLP136 T03390183





000
SAUS44 KMAF 271559
MTRGDP
METAR KGDP 271551Z AUTO 20006KT 9SM CLR 28/11 RMK AO2 SLPNO
T02780106 $





000
SAUS44 KMAF 271554
MTR6R6
METAR K6R6 271553Z AUTO 10008KT 32/19 A3007 RMK AO1 SLP137 T03220189





000
SAUS44 KMAF 271459
MTRGDP
METAR KGDP 271451Z AUTO 23005KT 8SM CLR 26/11 RMK AO2 SLPNO
T02560111 $





000
SAUS44 KMAF 271454
MTR6R6
METAR K6R6 271453Z AUTO 09009KT 30/19 A3006 RMK AO1 SLP135 T03000189
51013





000
SAUS44 KMAF 271359
MTRGDP
METAR KGDP 271351Z AUTO 25010KT 8SM CLR 24/11 RMK AO2 SLPNO
T02440106 $





000
SAUS44 KMAF 271354
MTR6R6
METAR K6R6 271353Z AUTO 11009KT 28/19 A3005 RMK AO1 SLP132 T02830189





000
SAUS44 KMAF 271259
MTRGDP
METAR KGDP 271251Z AUTO 24007KT 8SM CLR 24/11 RMK AO2 SLPNO
T02390106 $





000
SAUS44 KMAF 271254
MTR6R6
METAR K6R6 271253Z AUTO 10008KT 28/19 A3003 RMK AO1 SLP127 T02780194





000
SAUS44 KMAF 271159
MTRGDP
METAR KGDP 271151Z AUTO 24006KT 9SM CLR 23/10 RMK AO2 SLPNO
T02330100 10250 20233 $





000
SAUS44 KMAF 271155
MTR6R6
METAR K6R6 271153Z AUTO 10007KT 27/19 A3002 RMK AO1 SLP120 T02720194
10328 20272 53014





000
SAUS44 KMAF 271059
MTRGDP
METAR KGDP 271051Z AUTO 24007KT 9SM CLR 23/10 RMK AO2 SLPNO
T02330100 $





000
SAUS44 KMAF 271054
MTR6R6
METAR K6R6 271053Z AUTO 12007KT 28/19 A3000 RMK AO1 SLP113 T02830189





000
SAUS44 KMAF 270959
MTRGDP
METAR KGDP 270951Z AUTO 00000KT 9SM CLR 24/10 RMK AO2 SLPNO
T02390100 $





000
SAUS44 KMAF 270954
MTR6R6
METAR K6R6 270953Z AUTO 12007KT 29/18 A2999 RMK AO1 SLP108 T02890178





000
SAUS44 KMAF 270859
MTRGDP
METAR KGDP 270851Z AUTO 05010KT 9SM CLR 23/09 RMK AO2 SLPNO
T02330094 $





000
SAUS44 KMAF 270854
MTR6R6
METAR K6R6 270853Z AUTO 11010KT 29/16 A2997 RMK AO1 SLP104 T02940161
56000





000
SAUS44 KMAF 270759
MTRGDP
METAR KGDP 270751Z AUTO 04008KT 10SM CLR 23/09 RMK AO2 SLPNO
T02330089 $





000
SAUS44 KMAF 270754
MTR6R6
METAR K6R6 270753Z AUTO 11013G18KT 31/15 A2998 RMK AO1 SLP105
T03060150





000
SAUS44 KMAF 270659
MTRGDP
METAR KGDP 270651Z AUTO 05013KT 10SM CLR 24/09 RMK AO2 SLPNO
T02440089 403500217 $





000
SAUS44 KMAF 270655
MTR6R6
METAR K6R6 270653Z AUTO 09008KT 32/15 A2997 RMK AO1 SLP103 T03170150





000
SAUS44 KMAF 270559
MTRGDP
METAR KGDP 270551Z AUTO 06020KT 10SM CLR 25/08 RMK AO2 PK WND
05026/0528 SLPNO T02500083 10322 20250 $





000
SAUS44 KMAF 270554
MTR6R6
METAR K6R6 270553Z AUTO 12009KT 33/15 A2997 RMK AO1 SLP104 T03280150
10389 20328 404060244 50007





000
SAUS44 KMAF 270459
MTRGDP
METAR KGDP 270451Z AUTO 06017KT 10SM CLR 25/06 RMK AO2 SLPNO
T02500056 $





000
SAUS44 KMAF 270454
MTR6R6
METAR K6R6 270453Z AUTO 12014KT 33/14 A2998 RMK AO1 SLP107 T03330144





000
SAUS44 KMAF 270359
MTRGDP
METAR KGDP 270351Z AUTO 06016KT 10SM CLR 26/04 RMK AO2 SLPNO
T02610044 $





000
SAUS44 KMAF 270354
MTR6R6
METAR K6R6 270353Z AUTO 10012KT 34/13 A2997 RMK AO1 SLP106 T03390128





000
SAUS44 KMAF 270259
MTRGDP
METAR KGDP 270251Z AUTO 06012KT 10SM CLR 27/03 RMK AO2 SLPNO
T02720033 $





000
SAUS44 KMAF 270254
MTR6R6
METAR K6R6 270253Z AUTO 10013KT 35/13 A2995 RMK AO1 SLP098 T03500133
53017





000
SAUS44 KMAF 270159
MTRGDP
METAR KGDP 270151Z AUTO 07013KT 9SM CLR 29/02 RMK AO2 SLPNO
T02890017 $





000
SAUS44 KMAF 270154
MTR6R6
METAR K6R6 270153Z AUTO 11018G22KT 36/12 A2994 RMK AO1 SLP094
T03610117





000
SAUS44 KMAF 270059
MTRGDP
METAR KGDP 270051Z AUTO 08014KT 9SM CLR 31/02 RMK AO2 SLPNO
T03110017 $





000
SAUS44 KMAF 270054
MTR6R6
METAR K6R6 270053Z AUTO 11012G23KT 37/12 A2991 RMK AO1 SLP086
T03720122





000
SAUS44 KMAF 262359
MTRGDP
METAR KGDP 262351Z AUTO 08018KT 9SM CLR 32/M01 RMK AO2 SLPNO
T03221011 10350 20300 $





000
SAUS44 KMAF 262355
MTR6R6
METAR K6R6 262353Z AUTO 12010G21KT 39/13 A2990 RMK AO1 SLP080
T03890128 10406 20361 56014





000
SAUS44 KMAF 262259
MTRGDP
METAR KGDP 262251Z AUTO 07012KT 9SM CLR 34/02 RMK AO2 SLPNO
T03390022 $





000
SAUS44 KMAF 262254
MTR6R6
METAR K6R6 262253Z AUTO 12018G24KT 39/13 A2991 RMK AO1 SLP082
T03940133





000
SAUS44 KMAF 262159
MTRGDP
METAR KGDP 262151Z AUTO 05013KT 9SM CLR 34/06 RMK AO2 PK WND
08027/2141 SLPNO T03440056 $





000
SAUS44 KMAF 262154
MTR6R6
METAR K6R6 262153Z AUTO 13013G19KT 40/14 A2992 RMK AO1 SLP087
T04000139





000
SAUS44 KMAF 262059
MTRGDP
METAR KGDP 262051Z AUTO 07014G19KT 9SM CLR 34/07 RMK AO2 SLPNO
T03390067 $





000
SAUS44 KMAF 262054
MTR6R6
METAR K6R6 262053Z AUTO 12013G22KT 41/14 A2994 RMK AO1 SLP094
T04060144 56021





000
SAUS44 KMAF 261959
MTRGDP
METAR KGDP 261951Z AUTO 04008G16KT 9SM CLR 33/09 RMK AO2 SLPNO
T03330089 $





000
SAUS44 KMAF 261954
MTR6R6
METAR K6R6 261953Z AUTO 13012G18KT 39/14 A2996 RMK AO1 SLP101
T03890144





000
SAUS44 KMAF 261859
MTRGDP
METAR KGDP 261851Z AUTO 00000KT 9SM CLR 32/09 RMK AO2 SLPNO
T03170094 $





000
SAUS44 KMAF 261854
MTR6R6
METAR K6R6 261853Z AUTO 17010G14KT 38/16 A2999 RMK AO1 SLP108
T03830161





000
SAUS44 KMAF 261759
MTRGDP
METAR KGDP 261751Z AUTO 26013KT 9SM CLR 32/09 RMK AO2 SLPNO
T03220094 10328 20217 $





000
SAUS44 KMAF 261754
MTR6R6
METAR K6R6 261753Z AUTO 11009KT 37/18 A3001 RMK AO1 SLP117 T03670178
10367 20244 58012





000
SAUS44 KMAF 261659
MTRGDP
METAR KGDP 261651Z AUTO 24016KT 8SM CLR 30/12 RMK AO2 SLPNO
T03000117 $





    US Dept of Commerce
    National Oceanic and Atmospheric Administration
    National Weather Service
    1325 East West Highway
    Silver Spring, MD 20910
    Page Author: NWS Internet Services Team
Disclaimer
Information Quality
Credits
Glossary
Privacy Policy
Freedom of Information Act (FOIA)
About Us
Career Opportunities